Time;durP1;ratioP1;P1;durP2;ratioP2;P2;SDS_P1;SDS_P2;PMS_P1;PMS_P2;Temp;Humidity;BMP_temperature;BMP_pressure;BME280_temperature;BME280_humidity;BME280_pressure;Samples;Min_cycle;Max_cycle;Signal;HPM_P1;HPM_P2
2021/06/19 00:00:11;;;;;;;5.22;3.63;;;;;;;19.55;66.94;100385.50;5064899;28;20024;-68
2021/06/19 00:02:37;;;;;;;5.30;3.60;;;;;;;19.43;66.82;100380.81;5064695;28;20054;-68
2021/06/19 00:05:03;;;;;;;4.18;2.97;;;;;;;19.26;67.29;100389.50;5046958;28;20024;-69
2021/06/19 00:07:28;;;;;;;5.18;3.40;;;;;;;19.09;68.07;100375.31;5064844;28;20132;-69
2021/06/19 00:09:54;;;;;;;6.03;3.80;;;;;;;18.99;68.35;100380.13;5063476;28;20130;-69
2021/06/19 00:12:19;;;;;;;6.13;3.95;;;;;;;18.92;68.46;100381.28;5065049;28;20029;-69
2021/06/19 00:14:45;;;;;;;8.38;3.85;;;;;;;18.81;68.78;100366.84;5063400;28;20044;-69
2021/06/19 00:17:12;;;;;;;7.72;4.28;;;;;;;18.72;69.15;100351.47;5063826;28;20021;-68
2021/06/19 00:19:38;;;;;;;5.05;3.47;;;;;;;18.70;69.16;100364.69;5063611;28;20481;-68
2021/06/19 00:22:04;;;;;;;5.75;4.30;;;;;;;18.66;69.38;100355.22;5064521;28;20024;-68
2021/06/19 00:24:35;;;;;;;5.15;3.90;;;;;;;18.63;69.37;100363.25;5064855;28;20033;-68
2021/06/19 00:27:00;;;;;;;4.88;3.92;;;;;;;18.62;69.39;100361.53;5064447;28;20060;-68
2021/06/19 00:29:25;;;;;;;5.50;4.00;;;;;;;18.61;69.57;100358.97;5063253;28;20028;-68
2021/06/19 00:31:51;;;;;;;6.25;4.32;;;;;;;18.56;69.67;100352.13;5064455;28;20025;-68
2021/06/19 00:34:16;;;;;;;4.93;3.92;;;;;;;18.58;69.89;100349.44;5064519;28;20028;-68
2021/06/19 00:36:42;;;;;;;4.28;3.75;;;;;;;18.58;69.85;100350.28;5064566;28;20060;-68
2021/06/19 00:39:07;;;;;;;6.25;3.92;;;;;;;18.61;69.90;100351.09;5064181;28;20032;-68
2021/06/19 00:41:37;;;;;;;6.28;4.15;;;;;;;18.62;69.91;100347.53;5064358;28;20381;-69
2021/06/19 00:44:13;;;;;;;7.20;4.15;;;;;;;18.61;69.93;100338.78;5064237;28;20021;-69
2021/06/19 00:46:39;;;;;;;4.70;3.97;;;;;;;18.60;70.09;100336.22;5064496;28;20322;-69
2021/06/19 00:49:04;;;;;;;4.55;3.83;;;;;;;18.59;70.17;100335.38;5064058;28;20422;-68
2021/06/19 00:51:29;;;;;;;6.60;4.05;;;;;;;18.61;70.29;100332.69;5064086;28;20045;-68
2021/06/19 00:53:56;;;;;;;5.28;4.25;;;;;;;18.63;70.36;100330.81;5064282;28;20044;-69
2021/06/19 00:56:22;;;;;;;6.25;4.20;;;;;;;18.63;70.47;100325.56;5064192;28;20058;-68
2021/06/19 00:58:48;;;;;;;4.97;4.07;;;;;;;18.65;70.34;100323.72;5064309;28;20033;-69
2021/06/19 01:01:13;;;;;;;7.45;4.60;;;;;;;18.61;70.62;100315.13;5063996;28;20389;-69
2021/06/19 01:03:39;;;;;;;5.70;4.40;;;;;;;18.62;70.82;100313.34;5063937;28;20067;-69
2021/06/19 01:06:05;;;;;;;5.85;4.03;;;;;;;18.60;70.95;100305.53;5064366;28;20029;-69
2021/06/19 01:08:30;;;;;;;5.80;4.35;;;;;;;18.58;70.99;100308.22;5063601;28;20032;-69
2021/06/19 01:10:56;;;;;;;5.22;4.32;;;;;;;18.55;71.13;100303.09;5063825;28;20029;-69
2021/06/19 01:13:21;;;;;;;7.00;4.75;;;;;;;18.52;71.34;100291.88;5063851;28;20088;-69
2021/06/19 01:15:47;;;;;;;5.57;4.60;;;;;;;18.55;71.31;100300.47;5063715;28;20100;-68
2021/06/19 01:18:12;;;;;;;4.55;4.10;;;;;;;18.50;71.25;100302.44;5063691;28;20107;-68
2021/06/19 01:20:38;;;;;;;5.68;4.50;;;;;;;18.49;71.48;100311.25;5063899;28;20076;-70
2021/06/19 01:23:03;;;;;;;7.70;4.95;;;;;;;18.52;71.71;100299.75;5063660;28;20029;-68
2021/06/19 01:25:32;;;;;;;7.18;4.70;;;;;;;18.55;71.42;100297.84;5063844;28;20227;-67
2021/06/19 01:27:59;;;;;;;5.18;4.40;;;;;;;18.62;71.32;100298.44;5063557;28;20036;-69
2021/06/19 01:30:27;;;;;;;7.25;4.50;;;;;;;18.69;71.38;100289.34;5063556;28;20075;-68
2021/06/19 01:32:53;;;;;;;5.15;4.57;;;;;;;18.74;71.32;100294.41;5063543;28;20060;-69
2021/06/19 01:35:20;;;;;;;5.70;4.65;;;;;;;18.80;71.29;100282.78;5063753;28;20017;-69
2021/06/19 01:37:47;;;;;;;6.22;4.68;;;;;;;18.79;71.32;100276.66;5063312;28;20033;-69
2021/06/19 01:40:22;;;;;;;6.03;4.93;;;;;;;18.77;71.33;100275.84;5062286;28;20024;-69
2021/06/19 01:42:49;;;;;;;5.25;4.50;;;;;;;18.73;71.60;100271.66;5063407;28;20517;-69
2021/06/19 01:45:20;;;;;;;6.28;4.70;;;;;;;18.73;71.45;100270.81;5062173;28;20480;-69
2021/06/19 01:47:46;;;;;;;6.53;4.40;;;;;;;18.73;71.54;100260.28;5063256;28;20029;-68
2021/06/19 01:50:15;;;;;;;6.03;4.80;;;;;;;18.73;71.80;100262.91;5063291;28;20021;-69
2021/06/19 01:52:41;;;;;;;7.05;4.90;;;;;;;18.72;71.76;100251.56;5063283;28;20025;-69
2021/06/19 01:55:07;;;;;;;5.45;4.95;;;;;;;18.74;71.76;100248.88;5063451;28;20025;-69
2021/06/19 01:57:37;;;;;;;5.57;4.75;;;;;;;18.74;71.73;100241.81;5063516;28;20051;-68
2021/06/19 02:00:16;;;;;;;6.60;4.97;;;;;;;18.76;71.69;100239.09;5063190;28;20021;-68
2021/06/19 02:02:41;;;;;;;5.68;4.53;;;;;;;18.73;71.75;100232.22;5063213;28;20550;-68
2021/06/19 02:05:11;;;;;;;5.88;4.88;;;;;;;18.81;71.65;100231.88;5063348;28;20029;-68
2021/06/19 02:07:48;;;;;;;6.55;4.93;;;;;;;18.83;71.77;100225.59;5045270;28;20037;-69
2021/06/19 02:10:15;;;;;;;7.32;5.65;;;;;;;18.88;71.58;100227.19;5063180;28;20021;-69
2021/06/19 02:12:42;;;;;;;6.50;5.57;;;;;;;18.96;71.83;100230.31;5063196;28;20074;-69
2021/06/19 02:15:08;;;;;;;6.07;5.47;;;;;;;19.04;71.94;100228.16;5062995;28;20163;-69
2021/06/19 02:17:34;;;;;;;8.35;6.15;;;;;;;19.15;71.61;100221.59;5063034;28;20025;-69
2021/06/19 02:19:59;;;;;;;8.73;6.63;;;;;;;19.23;71.58;100224.72;5062969;28;20024;-68
2021/06/19 02:22:24;;;;;;;8.82;6.43;;;;;;;19.37;71.08;100218.78;5063065;28;20024;-69
2021/06/19 02:24:50;;;;;;;8.20;6.22;;;;;;;19.52;70.98;100216.31;5063098;28;20046;-68
2021/06/19 02:27:15;;;;;;;9.65;6.43;;;;;;;19.59;70.60;100208.94;5063096;28;20024;-68
2021/06/19 02:29:41;;;;;;;7.43;6.28;;;;;;;19.66;70.34;100205.09;5062777;28;20017;-69
2021/06/19 02:32:08;;;;;;;7.22;6.00;;;;;;;19.69;70.11;100213.72;5062892;28;20025;-69
2021/06/19 02:34:35;;;;;;;7.65;6.85;;;;;;;19.75;69.93;100209.91;5062892;28;20029;-69
2021/06/19 02:37:01;;;;;;;9.25;6.72;;;;;;;19.81;69.74;100209.59;5063010;28;20025;-68
2021/06/19 02:39:27;;;;;;;7.32;6.63;;;;;;;19.89;69.69;100200.47;5063381;28;20291;-69
2021/06/19 02:41:52;;;;;;;9.27;7.40;;;;;;;19.96;69.41;100201.84;5064922;28;20024;-68
2021/06/19 02:44:17;;;;;;;7.80;6.43;;;;;;;20.00;69.04;100195.47;5066962;28;20366;-69
2021/06/19 02:46:43;;;;;;;11.27;6.53;;;;;;;20.07;68.92;100185.50;5066590;28;20024;-69
2021/06/19 02:49:08;;;;;;;8.05;7.25;;;;;;;20.10;68.67;100174.81;5066838;28;20021;-68
2021/06/19 02:51:34;;;;;;;7.68;6.97;;;;;;;20.14;68.41;100171.09;5066499;28;20021;-69
2021/06/19 02:53:59;;;;;;;7.38;6.68;;;;;;;20.18;68.27;100175.25;5048651;28;20025;-69
2021/06/19 02:56:24;;;;;;;11.40;7.07;;;;;;;20.24;68.02;100174.06;5066585;28;20043;-69
2021/06/19 02:58:50;;;;;;;9.10;7.28;;;;;;;20.38;67.31;100180.41;5065144;28;20088;-69
2021/06/19 03:01:15;;;;;;;9.63;7.68;;;;;;;20.41;67.50;100174.97;5066368;28;20021;-69
2021/06/19 03:03:40;;;;;;;9.73;7.75;;;;;;;20.47;67.07;100168.50;5066530;28;20024;-69
2021/06/19 03:06:06;;;;;;;8.52;6.97;;;;;;;20.50;66.89;100166.56;5066334;28;20043;-68
2021/06/19 03:08:31;;;;;;;8.23;7.22;;;;;;;20.61;66.53;100165.09;5066294;28;20109;-69
2021/06/19 03:10:57;;;;;;;12.18;8.55;;;;;;;20.74;65.86;100163.50;5065974;28;20104;-68
2021/06/19 03:13:22;;;;;;;8.52;7.63;;;;;;;20.70;65.51;100127.69;5066150;28;20021;-68
2021/06/19 03:15:47;;;;;;;8.02;7.28;;;;;;;20.76;65.65;100145.81;5065992;28;20113;-67
2021/06/19 03:18:13;;;;;;;10.20;9.10;;;;;;;20.78;65.58;100148.38;5066126;28;20497;-70
2021/06/19 03:20:38;;;;;;;9.95;8.52;;;;;;;20.74;65.75;100149.47;5066205;28;20020;-68
2021/06/19 03:23:05;;;;;;;8.85;7.95;;;;;;;20.81;65.50;100171.94;5066205;28;20045;-67
2021/06/19 03:25:33;;;;;;;10.57;8.50;;;;;;;20.91;65.33;100162.59;5064871;28;20477;-67
2021/06/19 03:28:00;;;;;;;9.60;8.55;;;;;;;20.99;65.16;100174.53;5066057;28;20028;-67
2021/06/19 03:30:28;;;;;;;10.32;8.63;;;;;;;21.03;64.97;100176.03;5065786;28;20025;-67
2021/06/19 03:32:54;;;;;;;9.80;8.85;;;;;;;21.18;64.87;100176.97;5065308;28;20025;-68
2021/06/19 03:35:20;;;;;;;11.13;8.82;;;;;;;21.28;64.52;100164.06;5065886;28;20489;-68
2021/06/19 03:37:46;;;;;;;9.75;8.65;;;;;;;21.33;64.39;100159.38;5047603;28;20021;-67
2021/06/19 03:40:12;;;;;;;9.00;8.10;;;;;;;21.34;64.35;100154.97;5065928;28;20025;-67
2021/06/19 03:42:40;;;;;;;9.95;8.82;;;;;;;21.30;64.31;100155.16;5065458;28;20021;-68
2021/06/19 03:45:07;;;;;;;11.00;8.85;;;;;;;21.23;64.26;100143.22;5047696;28;20013;-68
2021/06/19 03:47:33;;;;;;;10.75;8.88;;;;;;;21.16;64.67;100152.44;5065563;28;20080;-69
2021/06/19 03:49:58;;;;;;;9.30;8.40;;;;;;;21.09;64.58;100149.31;5064217;28;20050;-68
2021/06/19 03:52:24;;;;;;;11.05;8.73;;;;;;;21.10;64.82;100147.53;5065136;28;20028;-67
2021/06/19 03:54:49;;;;;;;10.63;8.80;;;;;;;21.27;64.92;100151.81;5065479;28;20032;-68
2021/06/19 03:57:32;;;;;;;10.00;9.00;;;;;;;21.60;64.32;100148.16;5047317;28;20112;-68
2021/06/19 03:59:57;;;;;;;10.70;8.85;;;;;;;21.92;63.15;100136.63;5065444;28;20032;-68
2021/06/19 04:02:23;;;;;;;9.30;8.40;;;;;;;22.21;62.75;100141.91;5064019;28;20070;-68
2021/06/19 04:04:49;;;;;;;12.57;9.65;;;;;;;22.43;61.62;100132.63;5065113;28;20031;-68
2021/06/19 04:07:16;;;;;;;9.35;8.43;;;;;;;22.52;61.27;100131.22;5065063;28;20031;-68
2021/06/19 04:09:48;;;;;;;9.55;8.60;;;;;;;22.65;60.69;100129.50;5065244;28;20544;-68
2021/06/19 04:12:15;;;;;;;9.80;8.95;;;;;;;22.81;60.10;100132.97;5065017;28;20028;-68
2021/06/19 04:14:41;;;;;;;9.77;8.88;;;;;;;23.09;58.62;100142.63;5064924;28;20558;-68
2021/06/19 04:17:08;;;;;;;10.63;9.63;;;;;;;23.13;58.31;100136.16;5064997;28;20280;-68
2021/06/19 04:19:34;;;;;;;10.57;9.60;;;;;;;23.23;58.42;100139.03;5064782;28;20021;-69
2021/06/19 04:22:01;;;;;;;11.20;9.68;;;;;;;23.32;57.41;100140.25;5064933;28;20024;-69
2021/06/19 04:24:27;;;;;;;10.57;9.57;;;;;;;23.21;57.41;100146.22;5064942;28;20034;-68
2021/06/19 04:26:52;;;;;;;10.27;9.27;;;;;;;23.09;57.25;100174.38;5063339;28;20027;-68
2021/06/19 04:29:17;;;;;;;10.95;9.70;;;;;;;22.87;57.54;100154.59;5064739;28;20509;-68
2021/06/19 04:31:43;;;;;;;11.48;10.27;;;;;;;22.71;57.99;100153.88;5064559;28;20052;-68
2021/06/19 04:34:09;;;;;;;11.30;10.18;;;;;;;22.58;57.88;100151.13;5064584;28;20108;-68
2021/06/19 04:36:35;;;;;;;11.20;10.02;;;;;;;22.45;58.68;100146.63;5064573;28;20028;-68
2021/06/19 04:39:00;;;;;;;12.10;10.45;;;;;;;22.28;59.08;100150.31;5064610;28;20025;-68
2021/06/19 04:41:33;;;;;;;11.65;10.05;;;;;;;22.15;59.41;100145.81;5064498;28;20355;-69
2021/06/19 04:46:27;;;;;;;11.73;10.63;;;;;;;22.25;60.12;100124.91;5064668;28;20020;-68
2021/06/19 04:48:53;;;;;;;12.32;11.13;;;;;;;22.35;59.52;100127.00;5064457;28;20071;-68
2021/06/19 04:51:18;;;;;;;11.30;10.20;;;;;;;22.22;59.61;100111.06;5064180;28;20021;-68
2021/06/19 04:53:44;;;;;;;11.30;10.20;;;;;;;22.11;60.15;100109.91;5064127;28;20033;-67
2021/06/19 04:56:10;;;;;;;11.85;10.48;;;;;;;21.96;60.55;100095.88;5046395;28;20059;-68
2021/06/19 04:58:35;;;;;;;13.15;11.82;;;;;;;21.91;60.85;100090.00;5064313;28;20021;-68
2021/06/19 05:01:02;;;;;;;12.13;10.52;;;;;;;21.94;61.05;100086.31;5064118;28;20052;-68
2021/06/19 05:03:27;;;;;;;11.20;9.73;;;;;;;22.17;60.51;100085.72;5063648;28;20032;-68
2021/06/19 05:05:53;;;;;;;12.40;11.02;;;;;;;22.31;59.74;100088.47;5064154;28;20021;-69
2021/06/19 05:08:18;;;;;;;12.32;11.07;;;;;;;22.47;59.17;100075.97;5063947;28;20029;-73
2021/06/19 05:10:45;;;;;;;11.27;10.10;;;;;;;22.61;58.77;100071.59;5064043;28;20025;-74
2021/06/19 05:13:10;;;;;;;12.77;11.57;;;;;;;22.84;57.90;100075.41;5062577;28;20056;-66
2021/06/19 05:15:35;;;;;;;11.95;10.77;;;;;;;23.12;57.64;100056.81;5063795;28;20048;-69
2021/06/19 05:18:01;;;;;;;11.70;10.45;;;;;;;23.48;56.65;100049.19;5063852;28;20021;-67
2021/06/19 05:20:28;;;;;;;10.52;9.50;;;;;;;23.95;54.13;100049.44;5046068;28;20497;-67
2021/06/19 05:22:59;;;;;;;10.57;9.43;;;;;;;24.19;52.45;100054.00;5062329;28;20021;-67
2021/06/19 05:25:25;;;;;;;10.23;9.13;;;;;;;24.20;52.25;100055.66;5064030;28;20037;-67
2021/06/19 05:27:50;;;;;;;10.93;9.40;;;;;;;24.18;52.29;100046.16;5063830;28;20033;-67
2021/06/19 05:30:16;;;;;;;10.45;9.45;;;;;;;24.16;52.45;100040.09;5063631;28;20086;-67
2021/06/19 05:32:42;;;;;;;11.52;10.52;;;;;;;24.25;52.21;100029.69;5063497;28;20389;-67
2021/06/19 05:35:08;;;;;;;11.85;10.73;;;;;;;24.11;52.31;100043.91;5063606;28;20037;-67
2021/06/19 05:37:33;;;;;;;11.80;10.57;;;;;;;24.02;52.40;100050.72;5063695;28;20670;-67
2021/06/19 05:39:58;;;;;;;11.02;9.93;;;;;;;24.04;52.59;100049.75;5063353;28;20048;-67
2021/06/19 05:42:24;;;;;;;10.95;9.48;;;;;;;24.24;51.89;100048.34;5063434;28;20055;-67
2021/06/19 05:44:50;;;;;;;11.43;10.32;;;;;;;24.16;51.96;100040.94;5063785;28;20025;-67
2021/06/19 05:47:16;;;;;;;13.60;10.20;;;;;;;24.13;52.47;100042.00;5063297;28;20024;-67
2021/06/19 05:49:41;;;;;;;12.60;11.30;;;;;;;24.16;52.02;100032.13;5045350;28;20345;-67
2021/06/19 05:52:07;;;;;;;11.35;8.25;;;;;;;24.16;51.76;100033.00;5063227;28;20017;-67
2021/06/19 05:54:38;;;;;;;11.85;10.75;;;;;;;24.18;51.85;100036.41;5063496;28;20032;-67
2021/06/19 05:57:05;;;;;;;11.47;10.30;;;;;;;24.38;51.39;100034.94;5063301;28;20424;-67
2021/06/19 05:59:30;;;;;;;11.43;10.23;;;;;;;24.43;51.54;100031.94;5063343;28;20033;-69
2021/06/19 06:01:56;;;;;;;12.27;11.05;;;;;;;24.44;51.28;100020.38;5062954;28;20028;-69
2021/06/19 06:04:21;;;;;;;10.55;9.32;;;;;;;24.43;50.58;100031.94;5063231;28;20020;-68
2021/06/19 06:06:48;;;;;;;11.10;9.98;;;;;;;24.37;51.49;100022.66;5063199;28;20122;-69
2021/06/19 06:09:13;;;;;;;11.43;10.32;;;;;;;24.46;51.11;100014.94;5063042;28;20021;-69
2021/06/19 06:11:38;;;;;;;12.02;10.73;;;;;;;24.63;50.48;100027.81;5063010;28;20036;-69
2021/06/19 06:14:04;;;;;;;10.23;9.13;;;;;;;24.80;49.93;100020.41;5063245;28;20093;-68
2021/06/19 06:16:29;;;;;;;19.35;9.93;;;;;;;24.75;50.21;100019.91;5065609;28;20060;-68
2021/06/19 06:18:55;;;;;;;10.43;9.35;;;;;;;24.78;50.49;100019.66;5067337;28;20104;-68
2021/06/19 06:21:20;;;;;;;10.57;9.57;;;;;;;24.96;49.90;99995.38;5067116;28;20115;-67
2021/06/19 06:23:45;;;;;;;10.63;9.50;;;;;;;25.22;48.82;100012.00;5067372;28;20035;-66
2021/06/19 06:26:11;;;;;;;10.88;9.68;;;;;;;25.57;48.16;100025.31;5067112;28;20024;-67
2021/06/19 06:28:38;;;;;;;11.13;9.70;;;;;;;25.90;47.52;100005.00;5067143;28;20021;-67
2021/06/19 06:31:04;;;;;;;13.15;10.30;;;;;;;26.15;47.18;100008.34;5065325;28;20029;-67
2021/06/19 06:33:30;;;;;;;10.98;9.85;;;;;;;26.20;46.67;100002.69;5067105;28;20024;-67
2021/06/19 06:35:55;;;;;;;11.20;10.10;;;;;;;26.20;46.56;100000.84;5067401;28;20078;-68
2021/06/19 06:38:21;;;;;;;10.75;9.65;;;;;;;26.28;46.91;100002.06;5066671;28;20032;-68
2021/06/19 06:40:47;;;;;;;10.93;9.90;;;;;;;26.40;46.03;99985.09;5066798;28;20036;-68
2021/06/19 06:43:12;;;;;;;10.80;9.70;;;;;;;26.39;46.37;100010.00;5066715;28;20036;-68
2021/06/19 06:45:37;;;;;;;10.13;8.27;;;;;;;26.60;45.35;99991.44;5067006;28;20107;-68
2021/06/19 06:48:03;;;;;;;11.82;9.45;;;;;;;26.70;46.03;99994.16;5066953;28;20040;-68
2021/06/19 06:50:29;;;;;;;11.38;10.25;;;;;;;26.66;45.26;99990.06;5066525;28;20108;-68
2021/06/19 06:52:54;;;;;;;11.15;9.93;;;;;;;26.42;46.36;99996.44;5066678;28;20025;-68
2021/06/19 06:55:20;;;;;;;13.90;11.63;;;;;;;26.36;46.22;99986.31;5066621;28;20017;-68
2021/06/19 06:57:46;;;;;;;12.68;10.13;;;;;;;26.45;46.12;99992.72;5066537;28;20021;-68
2021/06/19 07:00:12;;;;;;;11.77;10.48;;;;;;;26.80;45.77;99998.72;5066700;28;20025;-68
2021/06/19 07:02:41;;;;;;;15.30;10.55;;;;;;;26.92;45.16;99979.03;5066333;28;20460;-68
2021/06/19 07:05:11;;;;;;;12.00;10.73;;;;;;;27.11;45.25;99988.16;5066500;28;20258;-68
2021/06/19 07:07:38;;;;;;;11.77;10.52;;;;;;;27.21;45.11;99972.22;5066256;28;20082;-68
2021/06/19 07:10:12;;;;;;;12.05;10.82;;;;;;;27.33;45.01;99987.13;5066253;28;20049;-68
2021/06/19 07:12:41;;;;;;;13.18;11.30;;;;;;;27.58;43.66;99979.69;5065909;28;20025;-67
2021/06/19 07:15:08;;;;;;;10.70;9.60;;;;;;;27.64;43.99;99974.78;5066169;28;20128;-67
2021/06/19 07:17:33;;;;;;;11.18;9.88;;;;;;;27.73;43.59;99979.34;5066179;28;20028;-68
2021/06/19 07:19:59;;;;;;;13.32;9.38;;;;;;;27.80;43.01;99982.28;5048293;28;20252;-68
2021/06/19 07:22:24;;;;;;;10.95;9.85;;;;;;;27.79;43.43;99977.94;5065777;28;20020;-67
2021/06/19 07:24:49;;;;;;;10.30;9.35;;;;;;;27.88;43.10;99977.13;5048044;28;20033;-67
2021/06/19 07:27:15;;;;;;;11.20;10.10;;;;;;;28.01;43.03;99968.00;5065291;28;20021;-68
2021/06/19 07:29:41;;;;;;;11.32;10.13;;;;;;;28.12;42.99;99965.22;5047860;28;20032;-68
2021/06/19 07:32:07;;;;;;;11.52;10.32;;;;;;;28.26;42.57;99971.97;5065642;28;20505;-68
2021/06/19 07:34:32;;;;;;;12.18;10.93;;;;;;;28.54;42.87;99969.50;5066264;28;20032;-68
2021/06/19 07:36:58;;;;;;;12.95;10.13;;;;;;;28.84;41.34;99972.13;5065650;28;20485;-68
2021/06/19 07:39:23;;;;;;;11.50;10.32;;;;;;;28.83;41.25;99978.47;5065669;28;20342;-67
2021/06/19 07:41:49;;;;;;;11.55;10.38;;;;;;;28.54;41.77;99992.69;5065396;28;20051;-68
2021/06/19 07:44:15;;;;;;;12.25;11.02;;;;;;;28.35;43.32;100018.38;5065650;28;20072;-68
2021/06/19 07:46:41;;;;;;;11.30;10.18;;;;;;;28.65;43.16;100029.91;5065651;28;20377;-68
2021/06/19 07:49:07;;;;;;;11.77;10.68;;;;;;;29.05;42.56;100019.22;5065465;28;20052;-68
2021/06/19 07:51:32;;;;;;;11.25;10.15;;;;;;;29.19;41.19;100031.28;5047387;28;20021;-68
2021/06/19 07:53:58;;;;;;;11.60;10.45;;;;;;;29.16;41.57;100035.09;5065680;28;20040;-68
2021/06/19 07:56:25;;;;;;;10.93;9.82;;;;;;;29.11;41.52;100039.19;5064242;28;20056;-68
2021/06/19 07:58:51;;;;;;;10.55;9.65;;;;;;;29.11;41.47;100044.53;5065416;28;20454;-68
2021/06/19 08:01:16;;;;;;;10.23;9.23;;;;;;;29.19;41.53;100064.22;5065066;28;20021;-68
2021/06/19 08:03:41;;;;;;;13.00;10.45;;;;;;;29.26;41.95;100071.66;5065237;28;20032;-68
2021/06/19 08:06:07;;;;;;;11.13;9.98;;;;;;;29.18;42.02;100072.38;5047258;28;20106;-69
2021/06/19 08:08:32;;;;;;;12.82;11.48;;;;;;;29.55;40.98;100062.72;5065176;28;20021;-68
2021/06/19 08:10:57;;;;;;;13.05;11.77;;;;;;;29.75;40.29;100074.19;5064870;28;20025;-67
2021/06/19 08:13:23;;;;;;;11.80;10.65;;;;;;;30.04;39.85;100077.72;5065196;28;20045;-68
2021/06/19 08:15:48;;;;;;;13.05;10.63;;;;;;;30.58;38.01;100066.28;5064995;28;20103;-67
2021/06/19 08:18:13;;;;;;;12.73;10.27;;;;;;;30.79;37.06;100075.88;5064962;28;20469;-67
2021/06/19 08:20:39;;;;;;;10.65;9.57;;;;;;;30.83;36.50;100073.75;5064986;28;20017;-71
2021/06/19 08:23:04;;;;;;;11.15;10.05;;;;;;;30.86;36.05;100065.38;5064594;28;20021;-69
2021/06/19 08:25:31;;;;;;;10.60;9.63;;;;;;;30.74;35.99;100062.91;5065037;28;20066;-65
2021/06/19 08:27:56;;;;;;;11.07;9.98;;;;;;;30.81;36.28;100073.91;5064842;28;20028;-69
2021/06/19 08:30:22;;;;;;;12.07;10.55;;;;;;;31.17;35.77;100070.31;5064852;28;20021;-68
2021/06/19 08:32:47;;;;;;;15.02;10.50;;;;;;;31.17;35.26;100081.88;5064545;28;20036;-68
2021/06/19 08:35:13;;;;;;;15.32;10.32;;;;;;;31.12;35.25;100083.34;5064592;28;20059;-67
2021/06/19 08:37:38;;;;;;;11.40;10.07;;;;;;;30.94;35.54;100073.50;5062659;28;20067;-67
2021/06/19 08:40:06;;;;;;;11.50;10.30;;;;;;;30.90;35.63;100078.31;5064303;28;20029;-70
2021/06/19 08:42:31;;;;;;;14.25;10.98;;;;;;;30.96;35.36;100089.44;5064511;28;20094;-70
2021/06/19 08:44:58;;;;;;;11.02;9.93;;;;;;;30.97;35.24;100072.34;5064474;28;20036;-70
2021/06/19 08:47:25;;;;;;;11.93;10.77;;;;;;;31.10;35.46;100072.78;5064422;28;20017;-70
2021/06/19 08:49:53;;;;;;;14.80;9.93;;;;;;;31.27;35.20;100067.53;5064364;28;20508;-70
2021/06/19 08:52:19;;;;;;;12.02;9.93;;;;;;;31.52;34.76;100071.22;5064291;28;20025;-72
2021/06/19 08:54:44;;;;;;;15.75;10.23;;;;;;;31.62;35.12;100055.03;5064533;28;20036;-76
2021/06/19 08:57:13;;;;;;;12.00;10.20;;;;;;;32.11;34.69;100050.88;5064177;28;20045;-77
2021/06/19 08:59:45;;;;;;;11.63;9.77;;;;;;;32.54;33.64;100047.31;5064511;28;20032;-68
2021/06/19 09:02:13;;;;;;;11.05;9.40;;;;;;;32.84;32.85;100031.50;5063995;28;20768;-71
2021/06/19 09:04:50;;;;;;;10.55;9.40;;;;;;;32.66;32.78;100034.34;5064142;28;20060;-68
2021/06/19 09:07:49;;;;;;;11.63;9.85;;;;;;;32.43;33.37;100026.09;5064027;28;20020;-70
2021/06/19 09:10:15;;;;;;;9.82;8.82;;;;;;;32.13;33.33;100029.22;5063957;28;20037;-71
2021/06/19 09:12:53;;;;;;;10.68;9.65;;;;;;;32.16;34.05;100031.56;5062631;28;20147;-72
2021/06/19 09:15:18;;;;;;;11.68;10.00;;;;;;;32.55;33.24;100038.22;5059143;28;20080;-72
2021/06/19 09:18:00;;;;;;;12.25;9.45;;;;;;;32.51;33.14;100034.19;5044081;28;20064;-76
2021/06/19 09:20:33;;;;;;;11.15;10.05;;;;;;;32.31;34.03;100042.53;5042983;28;20025;-76
2021/06/19 09:23:10;;;;;;;12.23;11.02;;;;;;;31.58;34.75;100042.94;5059302;28;20021;-69
2021/06/19 09:25:37;;;;;;;15.95;10.93;;;;;;;30.96;35.77;100049.22;5044124;28;20403;-74
2021/06/19 09:28:05;;;;;;;13.32;10.85;;;;;;;30.81;36.54;100041.75;5044075;28;20032;-73
2021/06/19 09:30:31;;;;;;;12.25;11.07;;;;;;;30.66;36.71;100058.31;5043985;28;20022;-66
2021/06/19 09:32:58;;;;;;;12.57;11.20;;;;;;;30.55;37.33;100054.06;5043648;28;20025;-69
2021/06/19 09:35:40;;;;;;;12.32;11.02;;;;;;;30.54;37.56;100046.16;5043766;28;20025;-72
2021/06/19 09:38:11;;;;;;;12.05;10.98;;;;;;;30.47;37.41;100045.06;5042101;28;20049;-71
2021/06/19 09:40:42;;;;;;;12.48;10.90;;;;;;;30.49;38.15;100064.53;5043430;28;20097;-72
2021/06/19 09:43:17;;;;;;;13.32;10.88;;;;;;;30.97;37.27;100057.09;5058829;28;20047;-71
2021/06/19 09:46:01;;;;;;;11.80;10.60;;;;;;;31.23;36.80;100056.28;5043671;28;20021;-70
2021/06/19 09:48:37;;;;;;;13.75;10.68;;;;;;;31.41;36.58;100048.22;5043762;28;20083;-67
2021/06/19 09:51:16;;;;;;;11.90;10.68;;;;;;;31.28;35.82;100051.28;5043395;28;20120;-67
2021/06/19 09:53:44;;;;;;;12.48;10.55;;;;;;;30.65;36.91;100056.66;5043395;28;20058;-68
2021/06/19 09:56:11;;;;;;;13.45;11.32;;;;;;;29.91;38.51;100054.00;5043133;28;20108;-68
2021/06/19 09:58:39;;;;;;;15.60;11.82;;;;;;;29.21;40.36;100061.38;5065661;23;20057;-67
2021/06/19 10:01:04;;;;;;;13.35;12.00;;;;;;;28.53;42.26;100063.09;5043903;28;20022;-67
2021/06/19 10:03:30;;;;;;;14.30;12.90;;;;;;;27.93;43.69;100046.91;5044486;28;20036;-67
2021/06/19 10:05:55;;;;;;;16.80;13.95;;;;;;;27.37;46.55;100041.03;5044435;28;20041;-65
2021/06/19 10:08:22;;;;;;;16.83;14.70;;;;;;;26.23;49.30;100016.56;5045098;28;20095;-63
2021/06/19 10:10:48;;;;;;;19.85;14.82;;;;;;;25.44;52.36;100017.44;5045115;28;20086;-62
2021/06/19 10:13:13;;;;;;;16.27;14.55;;;;;;;25.40;52.54;100035.41;5045711;28;20549;-63
2021/06/19 10:15:40;;;;;;;14.98;13.48;;;;;;;25.46;53.61;100066.81;5045376;28;20037;-62
2021/06/19 10:18:06;;;;;;;13.68;12.32;;;;;;;25.65;53.85;100054.81;5045330;28;20064;-63
2021/06/19 10:20:31;;;;;;;15.10;13.48;;;;;;;25.88;54.69;100061.97;5045182;28;20025;-63
2021/06/19 10:22:57;;;;;;;16.42;14.73;;;;;;;26.32;53.92;100068.22;5027344;28;20032;-61
2021/06/19 10:25:26;;;;;;;18.25;13.82;;;;;;;27.16;52.08;100054.34;5045328;28;20025;-67
2021/06/19 10:27:53;;;;;;;17.17;12.98;;;;;;;27.91;50.46;100053.38;5045118;28;20017;-68
2021/06/19 10:30:23;;;;;;;14.60;13.20;;;;;;;28.62;48.08;100050.72;5045195;28;20017;-69
2021/06/19 10:32:51;;;;;;;15.13;12.52;;;;;;;29.07;47.22;100050.16;5045069;28;20026;-72
2021/06/19 10:35:21;;;;;;;13.77;12.30;;;;;;;29.78;45.43;100051.66;5045492;28;20028;-76
2021/06/19 10:37:48;;;;;;;16.52;13.10;;;;;;;29.89;44.97;100051.47;5043715;28;20021;-66
2021/06/19 10:40:24;;;;;;;13.48;12.15;;;;;;;29.61;44.26;100055.94;5027752;28;20029;-68
2021/06/19 10:42:52;;;;;;;13.15;11.75;;;;;;;29.60;45.02;100048.94;5027787;28;20097;-67
2021/06/19 10:45:20;;;;;;;14.18;12.38;;;;;;;30.18;43.19;100052.28;5045458;28;20087;-77
2021/06/19 10:48:06;;;;;;;16.08;12.52;;;;;;;30.42;42.22;100040.19;5045353;28;20021;-66
2021/06/19 10:50:32;;;;;;;14.50;12.45;;;;;;;30.53;42.34;100050.66;5045561;28;20107;-70
2021/06/19 10:53:09;;;;;;;12.88;11.50;;;;;;;30.47;42.46;100042.41;5045196;28;20025;-72
2021/06/19 10:55:42;;;;;;;13.73;12.43;;;;;;;30.61;42.63;100052.59;5045429;28;20045;-67
2021/06/19 10:58:29;;;;;;;14.07;12.63;;;;;;;30.99;41.91;100051.59;5045145;28;20047;-68
2021/06/19 11:01:02;;;;;;;13.13;11.82;;;;;;;30.88;42.06;100044.66;5045143;28;20018;-69
2021/06/19 11:03:49;;;;;;;14.75;11.63;;;;;;;30.48;42.95;100044.09;5048651;28;20044;-67
2021/06/19 11:06:17;;;;;;;13.05;11.75;;;;;;;30.16;42.73;100047.09;5048936;28;20029;-71
2021/06/19 11:09:01;;;;;;;13.40;12.10;;;;;;;29.68;43.78;100033.81;5048811;28;20049;-68
2021/06/19 11:11:49;;;;;;;12.93;11.63;;;;;;;29.54;43.70;100012.88;5031100;28;20013;-68
2021/06/19 11:14:44;;;;;;;13.77;12.48;;;;;;;29.30;43.70;100016.91;5048902;28;20065;-68
2021/06/19 11:17:32;;;;;;;14.48;12.13;;;;;;;29.02;43.71;100016.84;5048147;28;20028;-70
2021/06/19 11:20:21;;;;;;;13.48;12.18;;;;;;;28.94;44.03;100017.53;5047526;28;20025;-75